Time;durP1;ratioP1;P1;durP2;ratioP2;P2;SDS_P1;SDS_P2;PMS_P1;PMS_P2;Temp;Humidity;BMP_temperature;BMP_pressure;BME280_temperature;BME280_humidity;BME280_pressure;Samples;Min_cycle;Max_cycle;Signal;HPM_P1;HPM_P2
2023/05/06 00:00:06;;;;;;;11.40;4.25;;;;;;;;;;5059379;28;20426;-84
2023/05/06 00:02:38;;;;;;;10.20;3.55;;;;;;;;;;5065588;28;20440;-85
2023/05/06 00:05:06;;;;;;;10.45;3.88;;;;;;;;;;5059233;28;20429;-85
2023/05/06 00:07:34;;;;;;;10.93;3.80;;;;;;;;;;5072146;28;20425;-86
2023/05/06 00:10:08;;;;;;;13.60;4.15;;;;;;;;;;5063573;28;20425;-84
2023/05/06 00:12:40;;;;;;;9.13;3.50;;;;;;;;;;5058365;28;20429;-84
2023/05/06 00:15:14;;;;;;;10.43;4.15;;;;;;;;;;5061082;28;20802;-84
2023/05/06 00:17:47;;;;;;;10.13;3.90;;;;;;;;;;5054089;28;20948;-85
2023/05/06 00:20:15;;;;;;;10.27;3.80;;;;;;;;;;5061113;28;20431;-84
2023/05/06 00:22:43;;;;;;;10.75;3.60;;;;;;;;;;5071683;28;20921;-84
2023/05/06 00:25:10;;;;;;;10.63;3.77;;;;;;;;;;5059043;28;20436;-84
2023/05/06 00:27:38;;;;;;;9.48;3.83;;;;;;;;;;5065578;28;20431;-83
2023/05/06 00:30:07;;;;;;;9.85;3.80;;;;;;;;;;5058942;28;20433;-84
2023/05/06 00:32:41;;;;;;;12.27;4.00;;;;;;;;;;5063776;28;20490;-84
2023/05/06 00:35:14;;;;;;;8.60;3.70;;;;;;;;;;5062191;28;20419;-83
2023/05/06 00:37:42;;;;;;;11.60;3.83;;;;;;;;;;5069071;28;20449;-83
2023/05/06 00:40:15;;;;;;;10.07;3.88;;;;;;;;;;5061399;28;20415;-83
2023/05/06 00:42:43;;;;;;;8.83;3.93;;;;;;;;;;5052259;28;20549;-83
2023/05/06 00:45:11;;;;;;;10.45;3.85;;;;;;;;;;5055915;28;20421;-83
2023/05/06 00:47:39;;;;;;;11.07;3.80;;;;;;;;;;5056912;28;20440;-85
2023/05/06 00:50:08;;;;;;;10.55;3.80;;;;;;;;;;5058726;28;20435;-84
2023/05/06 00:52:36;;;;;;;10.65;4.10;;;;;;;;;;5061613;28;20440;-84
2023/05/06 00:55:04;;;;;;;10.02;4.25;;;;;;;;;;5060742;28;20420;-85
2023/05/06 00:57:37;;;;;;;11.98;4.60;;;;;;;;;;5060949;28;20909;-84
2023/05/06 01:00:06;;;;;;;11.50;4.20;;;;;;;;;;5061543;28;20425;-86
2023/05/06 01:02:34;;;;;;;12.02;4.38;;;;;;;;;;5070436;28;20778;-84
2023/05/06 01:05:02;;;;;;;10.25;4.05;;;;;;;;;;5069589;28;20441;-81
2023/05/06 01:07:35;;;;;;;10.82;4.53;;;;;;;;;;5060801;28;20432;-84
2023/05/06 01:10:07;;;;;;;8.52;4.20;;;;;;;;;;5054248;28;20419;-84
2023/05/06 01:12:41;;;;;;;11.65;4.30;;;;;;;;;;5055728;28;20429;-85
2023/05/06 01:15:10;;;;;;;13.27;4.33;;;;;;;;;;5054621;28;20482;-86
2023/05/06 01:17:42;;;;;;;11.23;4.13;;;;;;;;;;5059714;28;20897;-85
2023/05/06 01:20:15;;;;;;;9.40;4.10;;;;;;;;;;5061432;28;20931;-85
2023/05/06 01:22:44;;;;;;;8.60;4.03;;;;;;;;;;5065849;28;20432;-84
2023/05/06 01:25:19;;;;;;;9.15;4.10;;;;;;;;;;5058327;28;20429;-85
2023/05/06 01:27:47;;;;;;;11.73;3.97;;;;;;;;;;5063575;28;20423;-85
2023/05/06 01:30:16;;;;;;;11.32;4.30;;;;;;;;;;5059621;28;20435;-84
2023/05/06 01:32:50;;;;;;;8.00;4.30;;;;;;;;;;5059277;28;20423;-83
2023/05/06 01:35:26;;;;;;;9.73;4.03;;;;;;;;;;5075434;28;20427;-84
2023/05/06 01:37:59;;;;;;;9.88;4.10;;;;;;;;;;5062769;28;20443;-84
2023/05/06 01:40:29;;;;;;;11.25;4.28;;;;;;;;;;5064292;28;20439;-83
2023/05/06 01:42:58;;;;;;;9.43;4.35;;;;;;;;;;5061136;28;20439;-85
2023/05/06 01:45:28;;;;;;;10.93;4.30;;;;;;;;;;5066121;28;20928;-85
2023/05/06 01:47:57;;;;;;;8.38;4.13;;;;;;;;;;5065374;28;20437;-85
2023/05/06 01:50:25;;;;;;;11.25;4.10;;;;;;;;;;5057898;28;20419;-85
2023/05/06 01:53:00;;;;;;;11.40;4.25;;;;;;;;;;5075952;28;20437;-84
2023/05/06 01:55:29;;;;;;;10.15;4.18;;;;;;;;;;5061128;28;20425;-84
2023/05/06 01:58:02;;;;;;;8.45;4.03;;;;;;;;;;5062319;28;20434;-84
2023/05/06 02:00:30;;;;;;;8.65;4.10;;;;;;;;;;5056561;28;20429;-84
2023/05/06 02:02:58;;;;;;;9.95;4.30;;;;;;;;;;5058650;28;20433;-84
2023/05/06 02:05:26;;;;;;;9.07;4.30;;;;;;;;;;5068538;28;20497;-85
2023/05/06 02:07:56;;;;;;;10.07;4.20;;;;;;;;;;5061865;28;20514;-85
2023/05/06 02:10:24;;;;;;;11.43;4.30;;;;;;;;;;5062366;28;20434;-84
2023/05/06 02:13:03;;;;;;;12.50;4.78;;;;;;;;;;5057140;28;20450;-85
2023/05/06 02:15:35;;;;;;;8.52;4.55;;;;;;;;;;5072261;28;20440;-86
2023/05/06 02:18:15;;;;;;;10.23;4.30;;;;;;;;;;5063217;28;20452;-85
2023/05/06 02:20:43;;;;;;;11.15;4.28;;;;;;;;;;5060817;28;20487;-85
2023/05/06 02:23:15;;;;;;;10.85;4.72;;;;;;;;;;5061723;28;20423;-85
2023/05/06 02:25:42;;;;;;;8.93;4.13;;;;;;;;;;5058236;28;20776;-84
2023/05/06 02:28:17;;;;;;;10.07;4.38;;;;;;;;;;5057841;28;20433;-84
2023/05/06 02:30:49;;;;;;;8.30;4.15;;;;;;;;;;5057862;28;20428;-85
2023/05/06 02:33:22;;;;;;;8.70;4.55;;;;;;;;;;5061180;28;20431;-85
2023/05/06 02:35:50;;;;;;;9.57;4.47;;;;;;;;;;5060608;28;20429;-84
2023/05/06 02:38:19;;;;;;;9.73;4.40;;;;;;;;;;5054226;28;20766;-85
2023/05/06 02:40:46;;;;;;;11.27;4.30;;;;;;;;;;5058385;28;20423;-86
2023/05/06 02:43:14;;;;;;;13.57;4.97;;;;;;;;;;5058320;28;20429;-84
2023/05/06 02:45:48;;;;;;;9.47;4.40;;;;;;;;;;5070922;28;21091;-85
2023/05/06 02:48:16;;;;;;;10.15;4.53;;;;;;;;;;5055980;28;20422;-85
2023/05/06 02:50:49;;;;;;;11.65;4.38;;;;;;;;;;5055565;28;20425;-85
2023/05/06 02:53:22;;;;;;;9.23;4.32;;;;;;;;;;5054858;28;20443;-86
2023/05/06 02:55:49;;;;;;;9.77;4.50;;;;;;;;;;5055716;28;20425;-86
2023/05/06 02:58:17;;;;;;;11.90;4.85;;;;;;;;;;5058213;28;20431;-85
2023/05/06 03:00:45;;;;;;;11.50;4.47;;;;;;;;;;5051387;28;20431;-85
2023/05/06 03:03:14;;;;;;;10.35;4.20;;;;;;;;;;5056787;28;20916;-85
2023/05/06 03:05:42;;;;;;;9.13;4.25;;;;;;;;;;5059097;28;20429;-85
2023/05/06 03:08:09;;;;;;;9.48;4.40;;;;;;;;;;5059713;28;20433;-83
2023/05/06 03:10:42;;;;;;;12.48;4.55;;;;;;;;;;5060053;28;20436;-84
2023/05/06 03:13:18;;;;;;;10.68;4.32;;;;;;;;;;5057551;28;20437;-85
2023/05/06 03:15:50;;;;;;;10.15;4.55;;;;;;;;;;5057529;28;20930;-85
2023/05/06 03:18:25;;;;;;;8.25;4.18;;;;;;;;;;5073226;28;20422;-86
2023/05/06 03:20:53;;;;;;;9.77;4.40;;;;;;;;;;5058478;28;20440;-84
2023/05/06 03:23:26;;;;;;;9.40;4.53;;;;;;;;;;5054803;28;20822;-85
2023/05/06 03:25:53;;;;;;;7.70;4.63;;;;;;;;;;5053941;28;20431;-85
2023/05/06 03:28:21;;;;;;;9.77;4.35;;;;;;;;;;5058128;28;20996;-85
2023/05/06 03:30:50;;;;;;;9.88;4.70;;;;;;;;;;5055428;28;20428;-85
2023/05/06 03:33:17;;;;;;;9.23;4.70;;;;;;;;;;5056815;28;20462;-86
2023/05/06 03:35:51;;;;;;;9.65;4.43;;;;;;;;;;5056876;28;20425;-85
2023/05/06 03:38:20;;;;;;;9.48;4.85;;;;;;;;;;5059558;28;20942;-86
2023/05/06 03:40:54;;;;;;;9.30;4.40;;;;;;;;;;5057161;28;20440;-84
2023/05/06 03:43:28;;;;;;;9.88;4.63;;;;;;;;;;5060490;28;20439;-86
2023/05/06 03:46:00;;;;;;;9.30;4.50;;;;;;;;;;5052625;28;20434;-84
2023/05/06 03:48:28;;;;;;;10.15;4.75;;;;;;;;;;5054495;28;20790;-85
2023/05/06 03:50:57;;;;;;;10.13;4.78;;;;;;;;;;5054547;28;20448;-86
2023/05/06 03:53:25;;;;;;;8.10;4.55;;;;;;;;;;5052998;28;20429;-86
2023/05/06 03:55:53;;;;;;;10.07;4.90;;;;;;;;;;5056971;28;20433;-83
2023/05/06 03:58:22;;;;;;;10.25;5.00;;;;;;;;;;5050638;28;20426;-85
2023/05/06 04:00:55;;;;;;;10.57;4.87;;;;;;;;;;5053481;28;20460;-85
2023/05/06 04:03:22;;;;;;;12.10;4.90;;;;;;;;;;5052170;28;20436;-86
2023/05/06 04:05:55;;;;;;;11.00;4.70;;;;;;;;;;5057765;28;20428;-85
2023/05/06 04:08:27;;;;;;;12.15;5.07;;;;;;;;;;5053668;28;20927;-85
2023/05/06 04:10:55;;;;;;;9.43;4.70;;;;;;;;;;5060187;28;20447;-86
2023/05/06 04:13:29;;;;;;;10.43;5.33;;;;;;;;;;5063818;28;20521;-85
2023/05/06 04:15:59;;;;;;;10.43;4.68;;;;;;;;;;5056723;28;20494;-85
2023/05/06 04:18:36;;;;;;;9.15;4.90;;;;;;;;;;5059358;28;20522;-86
2023/05/06 04:21:12;;;;;;;8.70;4.85;;;;;;;;;;5056833;28;20424;-85
2023/05/06 04:23:43;;;;;;;10.43;5.03;;;;;;;;;;5062813;28;20437;-84
2023/05/06 04:26:15;;;;;;;10.68;5.13;;;;;;;;;;5064512;28;20423;-85
2023/05/06 04:28:44;;;;;;;9.80;4.53;;;;;;;;;;5075156;28;20981;-86
2023/05/06 04:31:17;;;;;;;11.25;4.88;;;;;;;;;;5060516;28;20467;-85
2023/05/06 04:33:48;;;;;;;13.40;5.65;;;;;;;;;;5069730;28;20437;-86
2023/05/06 04:36:23;;;;;;;15.60;5.40;;;;;;;;;;5073486;28;20433;-85
2023/05/06 04:39:13;;;;;;;11.13;5.13;;;;;;;;;;5061140;28;20450;-84
2023/05/06 04:41:41;;;;;;;10.25;5.10;;;;;;;;;;5065077;28;20423;-85
2023/05/06 04:44:19;;;;;;;10.00;5.15;;;;;;;;;;5060752;28;20952;-84
2023/05/06 04:46:47;;;;;;;10.43;5.32;;;;;;;;;;5061173;28;20436;-84
2023/05/06 04:49:20;;;;;;;9.65;5.40;;;;;;;;;;5056942;28;20425;-84
2023/05/06 04:51:48;;;;;;;10.82;5.43;;;;;;;;;;5060601;28;20433;-85
2023/05/06 04:54:22;;;;;;;9.57;5.25;;;;;;;;;;5066659;28;20429;-86
2023/05/06 04:56:50;;;;;;;11.30;5.15;;;;;;;;;;5061389;28;20431;-83
2023/05/06 04:59:19;;;;;;;11.43;5.70;;;;;;;;;;5061104;28;20778;-85
2023/05/06 05:01:47;;;;;;;10.95;5.30;;;;;;;;;;5053234;28;20523;-86
2023/05/06 05:04:15;;;;;;;10.45;5.63;;;;;;;;;;5072942;28;20436;-86
2023/05/06 05:06:48;;;;;;;12.10;5.53;;;;;;;;;;5057716;28;20427;-85
2023/05/06 05:09:16;;;;;;;9.95;5.47;;;;;;;;;;5060517;28;20422;-86
2023/05/06 05:11:51;;;;;;;14.07;5.55;;;;;;;;;;5062917;28;20421;-85
2023/05/06 05:14:20;;;;;;;10.70;5.30;;;;;;;;;;5074778;28;20436;-86
2023/05/06 05:16:48;;;;;;;11.55;5.82;;;;;;;;;;5066528;28;20512;-85
2023/05/06 05:19:16;;;;;;;11.80;5.55;;;;;;;;;;5061409;28;20433;-85
2023/05/06 05:21:45;;;;;;;9.63;5.43;;;;;;;;;;5062686;28;20420;-85
2023/05/06 05:24:13;;;;;;;11.55;5.30;;;;;;;;;;5063797;28;20433;-84
2023/05/06 05:26:41;;;;;;;12.60;5.80;;;;;;;;;;5059094;28;20432;-86
2023/05/06 05:29:11;;;;;;;11.68;5.13;;;;;;;;;;5058566;28;20416;-83
2023/05/06 05:31:39;;;;;;;9.90;5.38;;;;;;;;;;5059639;28;20845;-84
2023/05/06 05:34:07;;;;;;;10.87;5.53;;;;;;;;;;5059433;28;20909;-86
2023/05/06 05:36:36;;;;;;;8.97;4.97;;;;;;;;;;5072714;28;20783;-84
2023/05/06 05:39:08;;;;;;;10.88;5.55;;;;;;;;;;5054832;28;20433;-84
2023/05/06 05:41:41;;;;;;;10.82;5.80;;;;;;;;;;5056346;28;20423;-85
2023/05/06 05:44:15;;;;;;;11.13;5.57;;;;;;;;;;5061703;28;20431;-85
2023/05/06 05:46:44;;;;;;;10.07;5.60;;;;;;;;;;5066192;28;20430;-86
2023/05/06 05:49:15;;;;;;;11.05;5.45;;;;;;;;;;5059583;28;20431;-85
2023/05/06 05:51:43;;;;;;;10.48;5.63;;;;;;;;;;5060378;28;20421;-84
2023/05/06 05:54:15;;;;;;;11.35;5.38;;;;;;;;;;5070838;28;20413;-84
2023/05/06 05:56:43;;;;;;;11.25;5.40;;;;;;;;;;5076385;28;20443;-85
2023/05/06 05:59:11;;;;;;;11.55;5.50;;;;;;;;;;5057158;28;20447;-84
2023/05/06 06:01:40;;;;;;;10.88;5.15;;;;;;;;;;5058361;28;20434;-85
2023/05/06 06:04:09;;;;;;;10.20;5.55;;;;;;;;;;5060458;28;20437;-84
2023/05/06 06:06:37;;;;;;;10.52;5.45;;;;;;;;;;5065553;28;20429;-84
2023/05/06 06:09:05;;;;;;;10.23;5.47;;;;;;;;;;5063189;28;20435;-84
2023/05/06 06:11:39;;;;;;;11.20;5.60;;;;;;;;;;5063655;28;20432;-84
2023/05/06 06:14:07;;;;;;;11.00;5.87;;;;;;;;;;5064491;28;20425;-84
2023/05/06 06:16:36;;;;;;;12.48;5.63;;;;;;;;;;5059672;28;20423;-84
2023/05/06 06:19:05;;;;;;;11.07;5.88;;;;;;;;;;5058983;28;20436;-84
2023/05/06 06:21:33;;;;;;;12.27;5.78;;;;;;;;;;5069796;28;20425;-84
2023/05/06 06:24:01;;;;;;;11.97;5.43;;;;;;;;;;5059280;28;22179;-83
2023/05/06 06:26:30;;;;;;;14.70;6.03;;;;;;;;;;5060212;28;20808;-83
2023/05/06 06:28:59;;;;;;;10.95;5.80;;;;;;;;;;5055255;28;20773;-83
2023/05/06 06:31:28;;;;;;;12.63;5.60;;;;;;;;;;5059236;28;20440;-83
2023/05/06 06:33:55;;;;;;;10.47;5.57;;;;;;;;;;5061929;28;20425;-84
2023/05/06 06:36:24;;;;;;;9.90;5.67;;;;;;;;;;5059564;28;20401;-83
2023/05/06 06:38:52;;;;;;;10.25;5.80;;;;;;;;;;5058925;28;20430;-83
2023/05/06 06:41:26;;;;;;;12.68;6.32;;;;;;;;;;5064599;28;20767;-85
2023/05/06 06:43:54;;;;;;;10.45;5.90;;;;;;;;;;5057092;28;20437;-83
2023/05/06 06:46:28;;;;;;;9.73;5.63;;;;;;;;;;5057707;28;20455;-83
2023/05/06 06:48:56;;;;;;;10.38;5.68;;;;;;;;;;5057923;28;20791;-84
2023/05/06 06:51:31;;;;;;;10.00;5.70;;;;;;;;;;5063118;28;20423;-84
2023/05/06 06:53:59;;;;;;;10.77;5.78;;;;;;;;;;5059133;28;21003;-84
2023/05/06 06:56:26;;;;;;;12.40;5.88;;;;;;;;;;5059015;28;22104;-83
2023/05/06 06:58:54;;;;;;;10.93;5.82;;;;;;;;;;5057937;28;20790;-83
2023/05/06 07:01:22;;;;;;;10.67;5.53;;;;;;;;;;5060589;28;20915;-81
2023/05/06 07:03:50;;;;;;;12.43;6.27;;;;;;;;;;5063770;28;20415;-85
2023/05/06 07:06:18;;;;;;;11.90;5.93;;;;;;;;;;5061673;28;20433;-85
2023/05/06 07:08:47;;;;;;;10.73;5.70;;;;;;;;;;5061321;28;20479;-84
2023/05/06 07:11:20;;;;;;;11.15;5.65;;;;;;;;;;5058896;28;20421;-87
2023/05/06 07:13:48;;;;;;;10.15;5.40;;;;;;;;;;5068387;28;20429;-86
2023/05/06 07:16:15;;;;;;;10.23;5.60;;;;;;;;;;5057500;28;20421;-85
2023/05/06 07:18:44;;;;;;;11.98;5.53;;;;;;;;;;5056797;28;20431;-86
2023/05/06 07:21:16;;;;;;;11.20;5.82;;;;;;;;;;5057972;28;20452;-86
2023/05/06 07:23:44;;;;;;;10.18;5.95;;;;;;;;;;5063138;28;20423;-84
2023/05/06 07:26:13;;;;;;;14.00;5.97;;;;;;;;;;5059677;28;20432;-85
2023/05/06 07:28:46;;;;;;;11.33;6.13;;;;;;;;;;5067081;28;20432;-87
2023/05/06 07:31:15;;;;;;;10.40;5.70;;;;;;;;;;5053643;28;20430;-85
2023/05/06 07:33:43;;;;;;;9.60;5.93;;;;;;;;;;5058380;28;20440;-85
2023/05/06 07:36:15;;;;;;;10.25;5.60;;;;;;;;;;5057808;28;20440;-84
2023/05/06 07:38:44;;;;;;;14.05;6.05;;;;;;;;;;5056800;28;20431;-86
2023/05/06 07:41:12;;;;;;;12.73;5.80;;;;;;;;;;5071610;28;20433;-83
2023/05/06 07:43:41;;;;;;;12.85;5.80;;;;;;;;;;5059153;28;20424;-85
2023/05/06 07:46:09;;;;;;;11.18;5.40;;;;;;;;;;5057726;28;20432;-86
2023/05/06 07:48:37;;;;;;;12.20;5.43;;;;;;;;;;5075889;28;20446;-82
2023/05/06 07:51:10;;;;;;;9.43;5.40;;;;;;;;;;5064026;28;20440;-83
2023/05/06 07:53:38;;;;;;;10.55;5.55;;;;;;;;;;5061553;28;20436;-82
2023/05/06 07:56:06;;;;;;;10.88;5.53;;;;;;;;;;5064789;28;20440;-82
2023/05/06 07:58:34;;;;;;;9.43;5.35;;;;;;;;;;5069486;28;20935;-82
2023/05/06 08:01:05;;;;;;;9.52;4.63;;;;;;;;;;5062382;28;20433;-82
2023/05/06 08:03:32;;;;;;;9.35;4.63;;;;;;;;;;5061435;28;20432;-83
2023/05/06 08:06:00;;;;;;;10.23;5.18;;;;;;;;;;5064190;28;20425;-81
2023/05/06 08:08:28;;;;;;;10.45;5.00;;;;;;;;;;5068879;28;20438;-84
2023/05/06 08:10:57;;;;;;;7.18;4.10;;;;;;;;;;5061133;28;20930;-83
2023/05/06 08:13:25;;;;;;;7.35;4.00;;;;;;;;;;5062123;28;20421;-84
2023/05/06 08:15:53;;;;;;;9.68;4.25;;;;;;;;;;5068565;28;20792;-82
2023/05/06 08:18:22;;;;;;;7.85;3.92;;;;;;;;;;5058485;28;20421;-81
2023/05/06 08:20:57;;;;;;;7.60;4.28;;;;;;;;;;5057441;28;20794;-83
2023/05/06 08:23:30;;;;;;;7.40;4.10;;;;;;;;;;5061065;28;20446;-85
2023/05/06 08:25:58;;;;;;;7.97;4.53;;;;;;;;;;5064008;28;20415;-82
2023/05/06 08:28:28;;;;;;;9.68;4.22;;;;;;;;;;5065127;28;21424;-84
2023/05/06 08:31:01;;;;;;;8.10;4.20;;;;;;;;;;5067998;28;20433;-82
2023/05/06 08:33:30;;;;;;;7.43;4.40;;;;;;;;;;5061084;28;20479;-82
2023/05/06 08:35:58;;;;;;;8.05;4.55;;;;;;;;;;5057300;28;20426;-82
2023/05/06 08:38:26;;;;;;;7.03;4.37;;;;;;;;;;5060815;28;20497;-82
2023/05/06 08:40:54;;;;;;;8.13;4.45;;;;;;;;;;5066776;28;20424;-82
2023/05/06 08:43:28;;;;;;;8.70;4.30;;;;;;;;;;5057910;28;20441;-83
2023/05/06 08:45:56;;;;;;;9.40;4.30;;;;;;;;;;5065169;28;20752;-82
2023/05/06 08:48:24;;;;;;;8.65;4.35;;;;;;;;;;5081577;28;20428;-82
2023/05/06 08:50:54;;;;;;;7.60;4.38;;;;;;;;;;5072486;28;20416;-83
2023/05/06 08:53:22;;;;;;;6.88;4.05;;;;;;;;;;5066794;28;20460;-81
2023/05/06 08:55:51;;;;;;;8.47;4.17;;;;;;;;;;5064569;28;20434;-83
2023/05/06 08:58:19;;;;;;;10.48;4.32;;;;;;;;;;5072323;28;20897;-84
2023/05/06 09:00:47;;;;;;;7.82;4.30;;;;;;;;;;5063024;28;20438;-82
2023/05/06 09:03:15;;;;;;;9.07;4.82;;;;;;;;;;5063712;28;20429;-81
2023/05/06 09:05:43;;;;;;;8.90;4.40;;;;;;;;;;5059741;28;20926;-81
2023/05/06 09:08:13;;;;;;;8.47;4.47;;;;;;;;;;5075626;28;20493;-83
2023/05/06 09:10:43;;;;;;;9.05;4.75;;;;;;;;;;5059711;28;20424;-84
2023/05/06 09:13:12;;;;;;;9.70;4.93;;;;;;;;;;5062746;28;20897;-83
2023/05/06 09:15:40;;;;;;;8.13;4.72;;;;;;;;;;5060740;28;20431;-82
2023/05/06 09:18:08;;;;;;;8.95;4.43;;;;;;;;;;5059504;28;20454;-82
2023/05/06 09:20:40;;;;;;;9.20;4.90;;;;;;;;;;5060240;28;20433;-85
2023/05/06 09:23:08;;;;;;;8.93;4.90;;;;;;;;;;5065555;28;20437;-83
2023/05/06 09:25:44;;;;;;;8.77;4.70;;;;;;;;;;5058598;28;20429;-84
2023/05/06 09:28:12;;;;;;;8.98;4.65;;;;;;;;;;5066087;28;20456;-84
2023/05/06 09:30:41;;;;;;;10.18;4.40;;;;;;;;;;5061833;28;20436;-82
2023/05/06 09:33:09;;;;;;;8.80;4.88;;;;;;;;;;5061613;28;20437;-83
2023/05/06 09:35:37;;;;;;;9.70;5.30;;;;;;;;;;5063312;28;20439;-82
2023/05/06 09:38:06;;;;;;;9.05;5.18;;;;;;;;;;5063171;28;21169;-83
2023/05/06 09:40:34;;;;;;;9.85;5.43;;;;;;;;;;5063883;28;20429;-83
2023/05/06 09:43:04;;;;;;;9.43;5.10;;;;;;;;;;5053247;28;20435;-85
2023/05/06 09:45:32;;;;;;;10.47;5.93;;;;;;;;;;5056320;28;20423;-83
2023/05/06 09:48:06;;;;;;;9.57;5.28;;;;;;;;;;5058856;28;20985;-83
2023/05/06 09:50:33;;;;;;;9.73;5.30;;;;;;;;;;5055883;28;20428;-83
2023/05/06 09:53:04;;;;;;;12.57;5.83;;;;;;;;;;5056907;28;20427;-83
2023/05/06 09:55:32;;;;;;;11.48;5.78;;;;;;;;;;5065228;28;20920;-83
2023/05/06 09:58:01;;;;;;;11.13;5.82;;;;;;;;;;5064076;28;20411;-83
2023/05/06 10:00:31;;;;;;;11.07;5.50;;;;;;;;;;5059333;28;20429;-84
2023/05/06 10:02:59;;;;;;;11.73;5.80;;;;;;;;;;5054955;28;20424;-83
2023/05/06 10:05:28;;;;;;;11.77;6.00;;;;;;;;;;5056722;28;21392;-83
2023/05/06 10:08:03;;;;;;;11.43;6.43;;;;;;;;;;5062306;28;20470;-82
2023/05/06 10:10:31;;;;;;;12.25;6.13;;;;;;;;;;5059829;28;20439;-83
2023/05/06 10:13:02;;;;;;;11.60;6.65;;;;;;;;;;5053942;28;20433;-85
2023/05/06 10:15:37;;;;;;;13.18;7.25;;;;;;;;;;5060259;28;20448;-84
2023/05/06 10:18:05;;;;;;;12.82;6.53;;;;;;;;;;5062752;28;20424;-83
2023/05/06 10:20:40;;;;;;;13.23;7.00;;;;;;;;;;5062690;28;20437;-84
2023/05/06 10:23:13;;;;;;;12.70;6.90;;;;;;;;;;5055329;28;20425;-83
2023/05/06 10:25:42;;;;;;;14.93;7.22;;;;;;;;;;5061549;28;20412;-83
2023/05/06 10:28:11;;;;;;;13.38;7.00;;;;;;;;;;5057864;28;20440;-81
2023/05/06 10:30:40;;;;;;;11.70;6.85;;;;;;;;;;5081189;28;20917;-84
2023/05/06 10:33:09;;;;;;;12.50;6.60;;;;;;;;;;5059891;28;20929;-83
2023/05/06 10:35:42;;;;;;;15.87;8.80;;;;;;;;;;5063229;28;20430;-86
2023/05/06 10:38:17;;;;;;;12.18;6.20;;;;;;;;;;5063209;28;20908;-83
2023/05/06 10:40:46;;;;;;;11.45;6.25;;;;;;;;;;5058030;28;20929;-84
2023/05/06 10:43:21;;;;;;;12.95;6.30;;;;;;;;;;5062383;28;20401;-87
2023/05/06 10:45:59;;;;;;;11.55;6.03;;;;;;;;;;5075224;28;20761;-85
2023/05/06 10:48:28;;;;;;;12.60;6.20;;;;;;;;;;5065820;28;20420;-84
2023/05/06 10:51:14;;;;;;;12.73;7.00;;;;;;;;;;5060947;28;20419;-84
2023/05/06 10:53:55;;;;;;;11.35;6.60;;;;;;;;;;5062958;28;20419;-84
2023/05/06 10:56:22;;;;;;;13.45;6.60;;;;;;;;;;5061913;28;20909;-83
2023/05/06 10:58:56;;;;;;;11.65;6.55;;;;;;;;;;5066300;28;20761;-83
2023/05/06 11:01:30;;;;;;;10.07;6.18;;;;;;;;;;5060149;28;20428;-83
2023/05/06 11:03:59;;;;;;;11.23;6.43;;;;;;;;;;5063635;28;20937;-84
2023/05/06 11:06:31;;;;;;;14.20;6.90;;;;;;;;;;5070722;28;20890;-86
2023/05/06 11:09:00;;;;;;;11.93;6.40;;;;;;;;;;5059117;28;20442;-83
2023/05/06 11:11:51;;;;;;;11.15;6.60;;;;;;;;;;5060022;28;20432;-85
2023/05/06 11:14:26;;;;;;;14.13;6.97;;;;;;;;;;5044169;28;20482;-85
2023/05/06 11:16:56;;;;;;;12.05;7.20;;;;;;;;;;5051302;28;20916;-83
2023/05/06 11:19:25;;;;;;;12.35;6.90;;;;;;;;;;5040862;28;20784;-84
2023/05/06 11:21:56;;;;;;;14.48;7.15;;;;;;;;;;5043354;28;20789;-85
2023/05/06 11:24:29;;;;;;;12.07;6.90;;;;;;;;;;5045489;28;20427;-84
2023/05/06 11:26:58;;;;;;;10.43;6.32;;;;;;;;;;5045030;28;20426;-85
2023/05/06 11:29:26;;;;;;;12.20;6.63;;;;;;;;;;5045479;28;20446;-84
2023/05/06 11:31:55;;;;;;;11.33;6.87;;;;;;;;;;5038304;28;20482;-84
2023/05/06 11:34:24;;;;;;;11.13;6.82;;;;;;;;;;5044855;28;20427;-84
2023/05/06 11:36:57;;;;;;;12.95;7.20;;;;;;;;;;5049406;28;21138;-85
2023/05/06 11:39:31;;;;;;;12.35;7.40;;;;;;;;;;5040149;28;20443;-83
2023/05/06 11:42:05;;;;;;;12.70;7.55;;;;;;;;;;5057057;28;20438;-84
2023/05/06 11:44:34;;;;;;;12.93;7.20;;;;;;;;;;5041767;28;20427;-83
2023/05/06 11:47:08;;;;;;;13.35;7.30;;;;;;;;;;5041623;28;20438;-84
2023/05/06 11:49:37;;;;;;;11.70;7.07;;;;;;;;;;5044318;28;20822;-83
2023/05/06 11:52:10;;;;;;;16.83;7.93;;;;;;;;;;5049633;28;20478;-83
2023/05/06 11:54:43;;;;;;;13.10;7.50;;;;;;;;;;5043598;28;20435;-81
2023/05/06 11:57:16;;;;;;;12.97;6.97;;;;;;;;;;5038523;28;20427;-82
2023/05/06 11:59:44;;;;;;;11.37;7.03;;;;;;;;;;5044480;28;20428;-83
2023/05/06 12:02:19;;;;;;;13.63;7.53;;;;;;;;;;5037829;28;20431;-83
2023/05/06 12:04:48;;;;;;;16.37;7.73;;;;;;;;;;5043087;28;20427;-83
2023/05/06 12:07:21;;;;;;;13.13;7.35;;;;;;;;;;5043070;28;21290;-84
2023/05/06 12:09:49;;;;;;;11.35;6.90;;;;;;;;;;5049646;28;20427;-83
2023/05/06 12:12:23;;;;;;;11.82;6.70;;;;;;;;;;5039428;28;20432;-82
2023/05/06 12:14:56;;;;;;;13.07;7.05;;;;;;;;;;5043457;28;20423;-83
2023/05/06 12:17:30;;;;;;;10.70;6.30;;;;;;;;;;5041621;28;20416;-82
2023/05/06 12:20:03;;;;;;;11.27;6.75;;;;;;;;;;5048100;28;20423;-83
2023/05/06 12:22:37;;;;;;;10.53;6.30;;;;;;;;;;5045237;28;20519;-82
2023/05/06 12:25:13;;;;;;;12.87;6.37;;;;;;;;;;5045647;28;20906;-82
2023/05/06 12:27:41;;;;;;;12.80;6.60;;;;;;;;;;5039005;28;20442;-83
2023/05/06 12:30:14;;;;;;;11.43;6.60;;;;;;;;;;5042973;28;20554;-83
2023/05/06 12:33:02;;;;;;;10.77;6.47;;;;;;;;;;5046285;28;20435;-83
2023/05/06 12:35:31;;;;;;;11.48;6.60;;;;;;;;;;5054286;28;20926;-83
2023/05/06 12:38:08;;;;;;;10.90;6.78;;;;;;;;;;5061677;28;20993;-83
2023/05/06 12:40:41;;;;;;;12.50;7.07;;;;;;;;;;5060199;28;20761;-82
2023/05/06 12:43:09;;;;;;;11.07;6.80;;;;;;;;;;5072971;28;20432;-82
2023/05/06 12:45:44;;;;;;;12.27;6.60;;;;;;;;;;5056350;28;20428;-83
2023/05/06 12:48:16;;;;;;;11.70;6.63;;;;;;;;;;5059663;28;20591;-83
2023/05/06 12:50:45;;;;;;;13.32;7.40;;;;;;;;;;5060003;28;20423;-83
2023/05/06 12:53:30;;;;;;;11.95;7.05;;;;;;;;;;5056678;28;20442;-83
2023/05/06 12:55:58;;;;;;;12.20;7.20;;;;;;;;;;5060147;28;21389;-83
2023/05/06 12:58:36;;;;;;;11.90;7.03;;;;;;;;;;5060488;28;20440;-82
2023/05/06 13:01:03;;;;;;;12.23;7.15;;;;;;;;;;5060924;28;20428;-83
2023/05/06 13:03:33;;;;;;;12.52;6.80;;;;;;;;;;5061119;28;20435;-82
2023/05/06 13:06:00;;;;;;;13.65;7.22;;;;;;;;;;5057452;28;20744;-82
2023/05/06 13:08:28;;;;;;;12.57;6.83;;;;;;;;;;5061510;28;20432;-83
2023/05/06 13:10:58;;;;;;;12.73;7.30;;;;;;;;;;5059002;28;20433;-82
2023/05/06 13:13:26;;;;;;;11.93;7.30;;;;;;;;;;5064710;28;20431;-81
2023/05/06 13:15:59;;;;;;;13.47;7.30;;;;;;;;;;5059972;28;20431;-82
2023/05/06 13:18:33;;;;;;;12.68;7.53;;;;;;;;;;5057207;28;20452;-82
2023/05/06 13:21:01;;;;;;;14.52;7.75;;;;;;;;;;5057054;28;20422;-82
2023/05/06 13:23:28;;;;;;;15.25;8.00;;;;;;;;;;5076494;28;20788;-82
2023/05/06 13:26:04;;;;;;;14.63;8.38;;;;;;;;;;5061343;28;20429;-82
2023/05/06 13:28:38;;;;;;;13.88;7.75;;;;;;;;;;5057729;28;20435;-82
2023/05/06 13:31:05;;;;;;;14.83;7.87;;;;;;;;;;5059118;28;20428;-82
2023/05/06 13:33:35;;;;;;;14.48;8.23;;;;;;;;;;5059499;28;20456;-83
2023/05/06 13:36:02;;;;;;;13.60;8.05;;;;;;;;;;5054443;28;20436;-83
2023/05/06 13:38:35;;;;;;;16.67;8.48;;;;;;;;;;5060682;28;20433;-82
2023/05/06 13:41:08;;;;;;;12.80;8.18;;;;;;;;;;5059194;28;20437;-83
2023/05/06 13:43:36;;;;;;;13.40;8.15;;;;;;;;;;5053939;28;20909;-82
2023/05/06 13:46:04;;;;;;;13.65;8.32;;;;;;;;;;5067368;28;20425;-82
2023/05/06 13:48:38;;;;;;;15.23;8.65;;;;;;;;;;5060467;28;20428;-82
2023/05/06 13:51:06;;;;;;;15.10;8.40;;;;;;;;;;5062352;28;20429;-83
2023/05/06 13:53:40;;;;;;;13.85;8.52;;;;;;;;;;5056007;28;20429;-83
2023/05/06 13:56:08;;;;;;;17.50;9.30;;;;;;;;;;5056228;28;20429;-82
2023/05/06 13:58:39;;;;;;;16.67;9.47;;;;;;;;;;5059539;28;20427;-83
2023/05/06 14:01:08;;;;;;;16.77;9.73;;;;;;;;;;5054678;28;21566;-82
2023/05/06 14:03:42;;;;;;;17.67;9.30;;;;;;;;;;5056281;28;20786;-83
2023/05/06 14:06:10;;;;;;;16.80;9.43;;;;;;;;;;5052557;28;20424;-82
2023/05/06 14:08:38;;;;;;;16.30;9.88;;;;;;;;;;5059752;28;20437;-83
2023/05/06 14:11:06;;;;;;;18.05;10.13;;;;;;;;;;5053363;28;20433;-82
2023/05/06 14:13:34;;;;;;;19.63;9.65;;;;;;;;;;5077244;28;20785;-83
2023/05/06 14:16:01;;;;;;;16.97;9.77;;;;;;;;;;5055721;28;20558;-82
2023/05/06 14:18:34;;;;;;;18.88;9.75;;;;;;;;;;5058646;28;20961;-81
2023/05/06 14:21:03;;;;;;;17.85;9.95;;;;;;;;;;5055986;28;20427;-80
2023/05/06 14:23:36;;;;;;;19.05;10.90;;;;;;;;;;5055820;28;21008;-83
2023/05/06 14:26:09;;;;;;;19.00;10.38;;;;;;;;;;5056272;28;20467;-83
2023/05/06 14:28:42;;;;;;;21.65;11.00;;;;;;;;;;5061350;28;20442;-82
2023/05/06 14:31:10;;;;;;;15.70;10.00;;;;;;;;;;5060587;28;20425;-82
2023/05/06 14:33:42;;;;;;;17.42;10.10;;;;;;;;;;5057888;28;20430;-82
2023/05/06 14:36:17;;;;;;;19.37;10.60;;;;;;;;;;5054618;28;20949;-82
2023/05/06 14:38:49;;;;;;;19.98;10.57;;;;;;;;;;5055511;28;20433;-82
2023/05/06 14:41:17;;;;;;;19.08;11.13;;;;;;;;;;5058622;28;20440;-82
2023/05/06 14:43:50;;;;;;;17.38;10.95;;;;;;;;;;5054426;28;20424;-82
2023/05/06 14:46:18;;;;;;;16.42;10.40;;;;;;;;;;5056342;28;20433;-82
2023/05/06 14:48:49;;;;;;;18.88;10.50;;;;;;;;;;5055559;28;20772;-82
2023/05/06 14:51:18;;;;;;;18.15;10.38;;;;;;;;;;5058939;28;20429;-84